This is the latest recevied weather packets stored in our database for station/object KB4KY. If no packets are shown the sender has not sent any weather packets the latest 10 day(s).
| Time | Temp. | Humidity | Pressure | Rain* | Wind** | Luminosity | Snow |
|---|---|---|---|---|---|---|---|
| 1778142530 | 9.44° C | 90% | 1014.8 hPa | 0 mm | - | - | - |
| 1778142281 | 9.44° C | 90% | 1014.8 hPa | 0 mm | - | - | - |
| 1778141981 | 9.44° C | 90% | 1014.8 hPa | 0 mm | - | - | - |
| 1778141684 | 8.89° C | 90% | 1014.8 hPa | 0 mm | - | - | - |
| 1778141380 | 9.44° C | 90% | 1014.8 hPa | 0 mm | - | - | - |
| 1778141259 | 9.44° C | 87% | 1014.6 hPa | 0 mm | - | - | - |
| 1778141119 | 9.44° C | 89% | 1014.8 hPa | 0 mm | - | - | - |
| 1778141079 | 9.44° C | 89% | 1014.8 hPa | 0 mm | - | - | - |
| 1778140812 | 9.44° C | 88% | 1014.7 hPa | 0 mm | - | - | - |
| 1778140780 | 9.44° C | 88% | 1014.7 hPa | 0 mm | - | - | - |
| 1778140517 | 9.44° C | 87% | 1014.6 hPa | 0 mm | - | - | - |
| 1778140479 | 9.44° C | 87% | 1014.6 hPa | 0 mm | - | - | - |
| 1778140210 | 9.44° C | 87% | 1014.6 hPa | 0 mm | - | - | - |
| 1778140179 | 9.44° C | 87% | 1014.6 hPa | 0 mm | - | - | - |
| 1778139882 | 9.44° C | 87% | 1014.5 hPa | 0 mm | - | - | - |
| 1778139663 | 9.44° C | 87% | 1014.5 hPa | 0 mm | - | - | - |
| 1778139578 | 9.44° C | 87% | 1014.5 hPa | 0 mm | - | - | - |
| 1778139278 | 9.44° C | 88% | 1014.4 hPa | 0 mm | - | - | - |
| 1778138983 | 9.44° C | 89% | 1014.4 hPa | 0 mm | - | - | - |
| 1778138677 | 9.44° C | 90% | 1014.5 hPa | 0 mm | - | - | - |
| 1778138385 | 9.44° C | 90% | 1014.5 hPa | 0 mm | - | - | - |
| 1778138082 | 9.44° C | 88% | 1014.4 hPa | 0 mm | - | - | - |
| 1778137936 | 10° C | 88% | 1014.5 hPa | 0 mm | - | - | - |
| 1778137778 | 10° C | 87% | 1014.4 hPa | 0 mm | - | - | - |
| 1778137476 | 10° C | 88% | 1014.5 hPa | 0 mm | - | - | - |
* Rain latest hour (hover to see other rain measurements)
** Current wind speed in m/s (hover to see current wind gust speed)